Airport View

Enter AWOS ICAO identifier for current METAR.

ex. KFNL

K8B0 251325Z AUTO 00000KT 7SM CLR 12/11 A3015 RMK AO2

25 Sep 2020 13:31

Frequency: 118.000

Phone: 207-864-5250

Other Area AWOS: KBML - KOWK - KWVL - KMWN

TAF KHIE 251124Z 2512/2612 00000KT 3/4SM BR VV001 FM251300 VRB03KT P6SM BKN100